createdAt,value
2024-02-03T00:00:39.656Z,6.30
2024-02-03T00:03:06.490Z,6.03
2024-02-03T00:05:33.234Z,6.43
2024-02-03T00:07:59.937Z,6.07
2024-02-03T00:10:26.721Z,5.57
2024-02-03T00:12:53.638Z,7.17
2024-02-03T00:15:22.903Z,7.03
2024-02-03T00:17:49.877Z,6.10
2024-02-03T00:20:16.819Z,5.93
2024-02-03T00:22:47.071Z,6.00
2024-02-03T00:25:13.967Z,4.75
2024-02-03T00:27:40.766Z,5.40
2024-02-03T00:30:08.745Z,4.82
2024-02-03T00:32:35.583Z,6.43
2024-02-03T00:35:02.321Z,5.77
2024-02-03T00:37:29.108Z,6.20
2024-02-03T00:39:55.985Z,6.13
2024-02-03T00:42:22.747Z,4.90
2024-02-03T00:44:49.447Z,4.83
2024-02-03T00:47:16.292Z,5.00
2024-02-03T00:49:45.785Z,4.70
2024-02-03T00:52:12.667Z,3.73
2024-02-03T00:54:39.653Z,4.37
2024-02-03T00:57:08.871Z,5.17
2024-02-03T00:59:36.891Z,4.57
2024-02-03T01:02:04.751Z,5.00
2024-02-03T01:04:31.513Z,6.38
2024-02-03T01:07:00.380Z,5.87
2024-02-03T01:09:27.420Z,4.67
2024-02-03T01:11:55.708Z,4.97
2024-02-03T01:14:22.751Z,4.60
2024-02-03T01:16:50.051Z,7.67
2024-02-03T01:19:18.191Z,7.43
2024-02-03T01:21:45.132Z,7.00
2024-02-03T01:24:11.968Z,8.00
2024-02-03T01:26:38.718Z,8.60
2024-02-03T01:29:05.535Z,8.63
2024-02-03T01:31:32.232Z,10.27
2024-02-03T01:34:00.136Z,9.52
2024-02-03T01:36:27.112Z,9.77
2024-02-03T01:38:54.942Z,6.60
2024-02-03T01:41:21.673Z,6.03
2024-02-03T01:43:48.532Z,6.97
2024-02-03T01:46:17.728Z,7.77
2024-02-03T01:48:44.740Z,12.50
2024-02-03T01:51:13.022Z,11.10
2024-02-03T01:53:40.673Z,9.60
2024-02-03T01:56:07.964Z,11.10
2024-02-03T01:58:34.777Z,10.77
2024-02-03T02:01:01.569Z,10.13
2024-02-03T02:03:28.442Z,12.00
2024-02-03T02:05:55.284Z,11.53
2024-02-03T02:08:32.882Z,14.37
2024-02-03T02:10:59.957Z,13.67
2024-02-03T02:13:27.145Z,48.13
2024-02-03T02:15:53.998Z,52.60
2024-02-03T02:18:21.156Z,34.23
2024-02-03T02:20:48.194Z,24.67
2024-02-03T02:23:14.973Z,23.17
2024-02-03T02:25:41.671Z,27.53
2024-02-03T02:28:08.374Z,25.40
2024-02-03T02:30:35.237Z,18.03
2024-02-03T02:33:03.814Z,18.83
2024-02-03T02:35:30.626Z,16.97
2024-02-03T02:37:57.254Z,16.00
2024-02-03T02:40:23.986Z,12.93
2024-02-03T02:42:50.793Z,14.23
2024-02-03T02:45:17.649Z,13.57
2024-02-03T02:47:54.442Z,7.07
2024-02-03T02:50:21.313Z,5.93
2024-02-03T02:52:47.993Z,4.00
2024-02-03T02:55:15.101Z,3.70
2024-02-03T02:57:41.938Z,2.80
2024-02-03T03:00:11.284Z,2.97
2024-02-03T03:02:38.498Z,4.73
2024-02-03T03:05:05.585Z,3.80
2024-02-03T03:07:32.440Z,3.70
2024-02-03T03:09:59.189Z,2.67
2024-02-03T03:12:26.476Z,2.60
2024-02-03T03:14:53.249Z,2.60
2024-02-03T03:17:20.040Z,2.60
2024-02-03T03:19:47.116Z,2.93
2024-02-03T03:22:14.855Z,2.40
2024-02-03T03:24:43.408Z,3.10
2024-02-03T03:27:10.307Z,2.63
2024-02-03T03:29:38.752Z,2.83
2024-02-03T03:32:05.791Z,3.03
2024-02-03T03:34:32.739Z,3.30
2024-02-03T03:36:59.506Z,3.20
2024-02-03T03:39:26.288Z,4.17
2024-02-03T03:41:55.080Z,4.77
2024-02-03T03:44:22.321Z,4.57
2024-02-03T03:46:49.147Z,4.90
2024-02-03T03:49:15.975Z,4.87
2024-02-03T03:51:42.777Z,6.27
2024-02-03T03:54:09.627Z,5.93
2024-02-03T03:56:36.810Z,5.97
2024-02-03T03:59:03.531Z,6.60
2024-02-03T04:01:30.228Z,6.07
2024-02-03T04:03:58.289Z,5.40
2024-02-03T04:06:25.357Z,7.27
2024-02-03T04:08:52.047Z,7.23
2024-02-03T04:11:18.811Z,7.10
2024-02-03T04:13:46.121Z,7.47
2024-02-03T04:16:12.885Z,10.23
2024-02-03T04:18:39.697Z,10.20
2024-02-03T04:21:06.476Z,10.93
2024-02-03T04:23:33.216Z,9.20
2024-02-03T04:26:00.045Z,9.30
2024-02-03T04:28:26.735Z,11.27
2024-02-03T04:30:56.441Z,10.07
2024-02-03T04:33:23.290Z,9.93
2024-02-03T04:35:50.078Z,10.63
2024-02-03T04:38:16.744Z,13.10
2024-02-03T04:40:43.413Z,11.53
2024-02-03T04:43:10.145Z,13.47
2024-02-03T04:45:36.910Z,15.90
2024-02-03T04:48:03.856Z,17.50
2024-02-03T04:50:30.585Z,12.47
2024-02-03T04:52:58.607Z,9.90
2024-02-03T04:55:25.472Z,12.90
2024-02-03T04:57:52.291Z,12.00
2024-02-03T05:00:19.407Z,11.07
2024-02-03T05:02:46.697Z,11.43
2024-02-03T05:05:13.474Z,12.93
2024-02-03T05:07:40.177Z,12.47
2024-02-03T05:10:07.253Z,12.17
2024-02-03T05:12:34.490Z,13.37
2024-02-03T05:15:04.921Z,28.37
2024-02-03T05:17:32.469Z,19.00
2024-02-03T05:19:59.190Z,16.60
2024-02-03T05:22:25.938Z,16.83
2024-02-03T05:24:52.784Z,13.23
2024-02-03T05:27:20.526Z,12.67
2024-02-03T05:29:47.430Z,13.23
2024-02-03T05:32:14.369Z,13.60
2024-02-03T05:34:41.215Z,14.73
2024-02-03T05:37:08.000Z,13.93
2024-02-03T05:39:34.727Z,14.57
2024-02-03T05:42:01.426Z,17.33
2024-02-03T05:44:28.110Z,20.10
2024-02-03T05:46:54.770Z,21.43
2024-02-03T05:49:21.509Z,27.73
2024-02-03T05:51:48.305Z,22.07
2024-02-03T05:54:15.079Z,22.63
2024-02-03T05:56:42.120Z,19.30
2024-02-03T05:59:26.455Z,21.37
2024-02-03T06:01:56.310Z,22.50
2024-02-03T06:04:25.428Z,23.70
2024-02-03T06:06:52.273Z,24.83
2024-02-03T06:09:20.128Z,29.87
2024-02-03T06:11:46.899Z,31.43
2024-02-03T06:14:13.582Z,13.03
2024-02-03T06:16:40.265Z,16.90
2024-02-03T06:19:07.049Z,22.57
2024-02-03T06:21:34.438Z,26.50
2024-02-03T06:24:01.236Z,28.73
2024-02-03T06:26:31.468Z,28.53
2024-02-03T06:28:58.752Z,27.20
2024-02-03T06:31:27.789Z,20.23
2024-02-03T06:33:54.833Z,17.80
2024-02-03T06:36:23.120Z,17.30
2024-02-03T06:38:49.817Z,23.67
2024-02-03T06:41:19.419Z,26.90
2024-02-03T06:43:46.180Z,25.97
2024-02-03T06:46:14.393Z,25.97
2024-02-03T06:48:41.290Z,27.20
2024-02-03T06:51:07.948Z,29.70
2024-02-03T06:53:35.160Z,29.10
2024-02-03T06:56:01.862Z,26.17
2024-02-03T06:58:30.168Z,26.90
2024-02-03T07:00:57.049Z,27.85
2024-02-03T07:03:24.187Z,34.13
2024-02-03T07:05:50.878Z,31.40
2024-02-03T07:08:17.553Z,26.52
2024-02-03T07:10:44.301Z,23.50
2024-02-03T07:13:10.988Z,14.57
2024-02-03T07:15:38.043Z,16.88
2024-02-03T07:18:05.048Z,11.00
2024-02-03T07:20:33.273Z,11.57
2024-02-03T07:23:00.066Z,12.15
2024-02-03T07:25:27.925Z,10.23
2024-02-03T07:27:54.618Z,10.60
2024-02-03T07:30:21.354Z,16.13
2024-02-03T07:32:48.165Z,14.63
2024-02-03T07:35:14.979Z,9.55
2024-02-03T07:37:41.757Z,10.35
2024-02-03T07:40:09.171Z,8.43
2024-02-03T07:42:37.154Z,7.70
2024-02-03T07:45:04.201Z,9.30
2024-02-03T07:47:31.269Z,8.68
2024-02-03T07:49:57.973Z,6.25
2024-02-03T07:52:32.132Z,6.43
2024-02-03T07:55:04.723Z,5.50
2024-02-03T07:57:31.417Z,6.43
2024-02-03T07:59:58.103Z,8.27
2024-02-03T08:02:25.868Z,6.68
2024-02-03T08:04:52.715Z,10.00
2024-02-03T08:07:19.451Z,6.88
2024-02-03T08:09:47.245Z,7.57
2024-02-03T08:12:13.966Z,7.88
2024-02-03T08:14:40.682Z,7.80
2024-02-03T08:17:08.815Z,8.93
2024-02-03T08:19:38.493Z,7.82
2024-02-03T08:22:05.295Z,12.23
2024-02-03T08:24:31.987Z,9.95
2024-02-03T08:26:58.962Z,17.63
2024-02-03T08:29:26.572Z,15.40
2024-02-03T08:31:54.244Z,12.00
2024-02-03T08:34:23.797Z,9.50
2024-02-03T08:36:50.676Z,8.75
2024-02-03T08:41:47.148Z,5.13
2024-02-03T08:44:13.960Z,5.47
2024-02-03T08:46:40.646Z,6.25
2024-02-03T08:49:07.467Z,8.55
2024-02-03T08:51:34.225Z,5.35
2024-02-03T08:54:01.238Z,4.65
2024-02-03T08:56:28.920Z,5.20
2024-02-03T08:58:55.643Z,5.47
2024-02-03T09:01:22.420Z,4.95
2024-02-03T09:03:54.430Z,5.75
2024-02-03T09:06:21.493Z,3.40
2024-02-03T09:08:49.670Z,3.22
2024-02-03T09:11:18.034Z,3.72
2024-02-03T09:13:45.892Z,4.25
2024-02-03T09:16:12.742Z,3.70
2024-02-03T09:18:40.206Z,3.47
2024-02-03T09:21:11.405Z,2.90
2024-02-03T09:23:41.579Z,3.17
2024-02-03T09:26:10.234Z,2.90
2024-02-03T09:28:39.806Z,2.22
2024-02-03T09:31:07.007Z,3.47
2024-02-03T09:33:34.154Z,2.88
2024-02-03T09:36:05.266Z,2.40
2024-02-03T09:38:31.958Z,3.83
2024-02-03T09:40:59.412Z,2.65
2024-02-03T09:43:27.808Z,2.72
2024-02-03T09:45:54.980Z,3.10
2024-02-03T09:48:24.571Z,3.30
2024-02-03T09:50:52.004Z,3.70
2024-02-03T09:53:18.729Z,3.13
2024-02-03T09:55:46.047Z,2.50
2024-02-03T09:58:12.714Z,3.72
2024-02-03T10:00:39.512Z,1.85
2024-02-03T10:03:17.681Z,2.10
2024-02-03T10:05:44.421Z,2.05
2024-02-03T10:08:11.330Z,2.20
2024-02-03T10:13:17.205Z,2.75
2024-02-03T10:15:45.076Z,1.95
2024-02-03T10:18:11.852Z,3.97
2024-02-03T10:20:38.755Z,2.28
2024-02-03T10:23:08.334Z,1.55
2024-02-03T10:25:36.237Z,4.10
2024-02-03T10:28:05.199Z,1.95
2024-02-03T10:30:39.502Z,4.10
2024-02-03T10:33:07.814Z,2.97
2024-02-03T10:35:36.266Z,3.05
2024-02-03T10:38:03.471Z,2.55
2024-02-03T10:40:35.364Z,1.80
2024-02-03T10:43:03.749Z,2.80
2024-02-03T10:45:32.764Z,1.70
2024-02-03T10:48:03.581Z,1.40
2024-02-03T10:50:46.192Z,2.03
2024-02-03T10:53:38.019Z,1.30
2024-02-03T10:56:07.428Z,2.13
2024-02-03T10:58:34.722Z,2.25
2024-02-03T11:01:22.384Z,2.17
2024-02-03T11:03:50.402Z,1.38
2024-02-03T11:06:31.450Z,1.42
2024-02-03T11:09:15.088Z,1.60
2024-02-03T11:11:42.623Z,1.92
2024-02-03T11:14:17.075Z,1.77
2024-02-03T11:16:44.312Z,2.05
2024-02-03T11:19:12.791Z,3.28
2024-02-03T11:21:45.969Z,2.00
2024-02-03T11:24:12.808Z,1.65
2024-02-03T11:26:39.766Z,1.55
2024-02-03T11:29:10.689Z,2.20
2024-02-03T11:31:37.384Z,1.33
2024-02-03T11:34:04.814Z,1.48
2024-02-03T11:36:31.644Z,1.60
2024-02-03T11:38:58.511Z,1.90
2024-02-03T11:41:25.439Z,2.10
2024-02-03T11:43:52.233Z,2.15
2024-02-03T11:46:19.267Z,2.75
2024-02-03T11:48:48.525Z,2.88
2024-02-03T11:51:16.844Z,1.83
2024-02-03T11:53:44.330Z,2.15
2024-02-03T11:56:11.057Z,2.15
2024-02-03T11:58:42.831Z,2.78
2024-02-03T12:01:11.144Z,2.35
2024-02-03T12:03:38.730Z,2.40
2024-02-03T12:06:06.612Z,2.40
2024-02-03T12:08:33.878Z,2.40
2024-02-03T12:11:00.868Z,2.50
2024-02-03T12:13:37.580Z,2.42
2024-02-03T12:16:05.480Z,2.72
2024-02-03T12:18:32.423Z,3.60
2024-02-03T12:20:59.757Z,2.20
2024-02-03T12:23:29.981Z,2.72
2024-02-03T12:25:56.698Z,2.58
2024-02-03T12:28:26.112Z,2.22
2024-02-03T12:31:00.503Z,2.60
2024-02-03T12:33:27.948Z,2.47
2024-02-03T12:35:54.927Z,2.50
2024-02-03T12:38:22.780Z,2.58
2024-02-03T12:40:49.853Z,1.90
2024-02-03T12:43:16.614Z,3.42
2024-02-03T12:45:43.704Z,3.28
2024-02-03T12:48:10.501Z,2.88
2024-02-03T12:50:37.266Z,2.60
2024-02-03T12:53:04.290Z,2.97
2024-02-03T12:55:31.017Z,2.10
2024-02-03T12:57:59.889Z,2.30
2024-02-03T13:00:26.769Z,3.67
2024-02-03T13:02:56.326Z,3.20
2024-02-03T13:05:24.296Z,3.90
2024-02-03T13:07:54.501Z,4.25
2024-02-03T13:10:21.385Z,4.03
2024-02-03T13:12:48.735Z,3.42
2024-02-03T13:15:16.126Z,11.23
2024-02-03T13:17:43.904Z,7.10
2024-02-03T13:20:11.523Z,2.08
2024-02-03T13:22:38.443Z,2.92
2024-02-03T13:25:05.620Z,5.03
2024-02-03T13:27:32.767Z,1.58
2024-02-03T13:30:01.804Z,1.83
2024-02-03T13:32:28.640Z,6.60
2024-02-03T13:34:57.142Z,3.10
2024-02-03T13:37:23.961Z,4.18
2024-02-03T13:39:51.116Z,3.90
2024-02-03T13:42:17.863Z,2.30
2024-02-03T13:44:44.740Z,1.95
2024-02-03T13:47:11.581Z,6.78
2024-02-03T13:49:38.443Z,10.85
2024-02-03T13:52:06.309Z,4.88
2024-02-03T13:54:33.160Z,6.28
2024-02-03T13:56:59.938Z,5.68
2024-02-03T13:59:29.448Z,6.55
2024-02-03T14:01:56.282Z,5.20
2024-02-03T14:04:23.096Z,5.05
2024-02-03T14:06:49.949Z,3.38
2024-02-03T14:09:16.843Z,3.55
2024-02-03T14:11:50.959Z,3.55
2024-02-03T14:14:23.237Z,3.78
2024-02-03T14:16:51.714Z,6.70
2024-02-03T14:19:18.607Z,7.25
2024-02-03T14:21:47.188Z,3.60
2024-02-03T14:24:14.339Z,3.85
2024-02-03T14:26:41.932Z,4.28
2024-02-03T14:29:10.059Z,3.70
2024-02-03T14:31:36.785Z,7.13
2024-02-03T14:34:03.567Z,6.57
2024-02-03T14:36:31.643Z,4.70
2024-02-03T14:39:02.527Z,3.58
2024-02-03T14:41:29.385Z,9.55
2024-02-03T14:43:56.010Z,9.65
2024-02-03T14:46:22.703Z,7.43
2024-02-03T14:48:50.739Z,17.42
2024-02-03T14:51:17.727Z,11.98
2024-02-03T14:53:44.520Z,5.97
2024-02-03T14:56:12.249Z,7.65
2024-02-03T14:58:39.286Z,6.97
2024-02-03T15:01:13.974Z,7.10
2024-02-03T15:03:40.910Z,5.93
2024-02-03T15:06:08.028Z,7.28
2024-02-03T15:08:35.174Z,2.78
2024-02-03T15:11:02.355Z,4.80
2024-02-03T15:13:29.643Z,5.68
2024-02-03T15:15:56.406Z,8.50
2024-02-03T15:18:27.163Z,7.05
2024-02-03T15:20:54.672Z,7.57
2024-02-03T15:23:21.519Z,5.68
2024-02-03T15:25:49.346Z,9.07
2024-02-03T15:28:16.037Z,11.10
2024-02-03T15:30:42.850Z,8.23
2024-02-03T15:33:10.238Z,10.18
2024-02-03T15:35:47.639Z,13.88
2024-02-03T15:38:14.382Z,3.90
2024-02-03T15:40:41.076Z,8.00
2024-02-03T15:43:07.805Z,10.30
2024-02-03T15:45:34.565Z,7.53
2024-02-03T15:48:02.454Z,7.93
2024-02-03T15:50:31.087Z,7.55
2024-02-03T15:52:58.274Z,8.52
2024-02-03T15:55:29.623Z,12.57
2024-02-03T15:57:57.804Z,23.92
2024-02-03T16:00:26.026Z,86.20
2024-02-03T16:02:53.189Z,26.10
2024-02-03T16:05:20.576Z,22.30
2024-02-03T16:07:47.469Z,28.27
2024-02-03T16:10:14.589Z,11.38
2024-02-03T16:12:42.585Z,14.35
2024-02-03T16:15:10.512Z,8.80
2024-02-03T16:17:37.505Z,18.90
2024-02-03T16:20:06.133Z,36.35
2024-02-03T16:22:33.633Z,38.13
2024-02-03T16:25:02.099Z,51.58
2024-02-03T16:27:29.627Z,37.20
2024-02-03T16:29:57.653Z,40.13
2024-02-03T16:32:24.337Z,41.30
2024-02-03T16:34:53.464Z,49.13
2024-02-03T16:37:20.743Z,49.20
2024-02-03T16:39:47.569Z,38.83
2024-02-03T16:42:14.298Z,32.65
2024-02-03T16:44:40.983Z,31.10
2024-02-03T16:47:08.156Z,31.17
2024-02-03T16:49:35.190Z,39.72
2024-02-03T16:52:02.058Z,41.13
2024-02-03T16:54:28.814Z,55.47
2024-02-03T16:56:57.973Z,59.97
2024-02-03T16:59:25.128Z,54.67
2024-02-03T17:01:52.079Z,53.45
2024-02-03T17:04:19.250Z,50.55
2024-02-03T17:06:49.449Z,47.63
2024-02-03T17:09:18.031Z,48.22
2024-02-03T17:11:46.184Z,47.13
2024-02-03T17:14:15.243Z,55.60
2024-02-03T17:16:42.374Z,60.45
2024-02-03T17:19:09.986Z,53.65
2024-02-03T17:21:37.229Z,28.27
2024-02-03T17:24:04.593Z,39.75
2024-02-03T17:26:35.085Z,31.38
2024-02-03T17:29:03.404Z,34.50
2024-02-03T17:31:31.233Z,18.35
2024-02-03T17:33:58.040Z,19.75
2024-02-03T17:36:24.729Z,38.78
2024-02-03T17:38:52.387Z,28.60
2024-02-03T17:41:20.611Z,47.13
2024-02-03T17:43:47.593Z,54.80
2024-02-03T17:46:18.087Z,51.20
2024-02-03T17:48:45.143Z,52.77
2024-02-03T17:51:13.105Z,54.15
2024-02-03T17:53:40.608Z,51.00
2024-02-03T17:56:08.427Z,51.92
2024-02-03T17:58:35.307Z,37.83
2024-02-03T18:01:02.171Z,83.20
2024-02-03T18:03:29.138Z,62.42
2024-02-03T18:05:55.972Z,56.53
2024-02-03T18:08:22.753Z,48.10
2024-02-03T18:10:49.530Z,62.43
2024-02-03T18:13:16.206Z,59.25
2024-02-03T18:15:42.993Z,67.27
2024-02-03T18:18:12.101Z,63.45
2024-02-03T18:20:40.281Z,72.67
2024-02-03T18:23:08.434Z,57.10
2024-02-03T18:25:42.525Z,63.63
2024-02-03T18:28:09.932Z,60.58
2024-02-03T18:30:39.741Z,62.57
2024-02-03T18:33:06.874Z,65.17
2024-02-03T18:35:33.619Z,60.70
2024-02-03T18:38:02.167Z,68.77
2024-02-03T18:40:29.234Z,75.07
2024-02-03T18:42:56.884Z,70.33
2024-02-03T18:45:24.842Z,68.33
2024-02-03T18:47:53.143Z,69.93
2024-02-03T18:50:19.977Z,59.17
2024-02-03T18:52:46.700Z,49.57
2024-02-03T18:55:13.418Z,55.92
2024-02-03T18:57:40.679Z,50.92
2024-02-03T19:00:08.427Z,59.77
2024-02-03T19:02:35.162Z,51.37
2024-02-03T19:05:02.098Z,56.37
2024-02-03T19:07:31.471Z,58.30
2024-02-03T19:09:58.138Z,51.05
2024-02-03T19:12:25.245Z,52.77
2024-02-03T19:14:52.071Z,52.97
2024-02-03T19:17:18.801Z,44.70
2024-02-03T19:19:45.906Z,46.00
2024-02-03T19:22:14.311Z,45.03
2024-02-03T19:24:41.170Z,45.87
2024-02-03T19:27:07.859Z,45.57
2024-02-03T19:29:34.797Z,29.13
2024-02-03T19:32:04.726Z,36.67
2024-02-03T19:34:32.898Z,35.47
2024-02-03T19:37:00.147Z,37.10
2024-02-03T19:39:27.375Z,37.93
2024-02-03T19:41:59.157Z,38.77
2024-02-03T19:44:25.827Z,36.77
2024-02-03T19:46:52.977Z,39.33
2024-02-03T19:49:20.754Z,43.03
2024-02-03T19:51:47.857Z,42.07
2024-02-03T19:54:14.578Z,41.37
2024-02-03T19:56:41.408Z,46.33
2024-02-03T19:59:08.883Z,45.10
2024-02-03T20:01:37.110Z,49.90
2024-02-03T20:04:04.478Z,41.27
2024-02-03T20:06:39.695Z,47.03
2024-02-03T20:09:07.053Z,42.90
2024-02-03T20:11:34.059Z,41.07
2024-02-03T20:14:00.831Z,39.83
2024-02-03T20:16:27.670Z,39.13
2024-02-03T20:18:57.226Z,39.13
2024-02-03T20:21:24.072Z,48.33
2024-02-03T20:23:50.789Z,48.77
2024-02-03T20:26:19.653Z,64.43
2024-02-03T20:28:46.705Z,75.03
2024-02-03T20:31:13.848Z,83.00
2024-02-03T20:33:41.312Z,54.37
2024-02-03T20:36:11.389Z,62.00
2024-02-03T20:38:40.692Z,66.93
2024-02-03T20:41:07.928Z,54.90
2024-02-03T20:43:36.673Z,49.40
2024-02-03T20:46:03.622Z,48.27
2024-02-03T20:48:30.548Z,47.93
2024-02-03T20:50:57.582Z,48.63
2024-02-03T20:53:32.612Z,49.33
2024-02-03T20:55:59.428Z,48.30
2024-02-03T20:58:26.450Z,56.63
2024-02-03T21:00:53.551Z,50.40
2024-02-03T21:03:20.532Z,48.13
2024-02-03T21:05:47.453Z,50.07
2024-02-03T21:08:17.529Z,47.70
2024-02-03T21:10:44.546Z,41.17
2024-02-03T21:13:13.861Z,40.93
2024-02-03T21:15:45.163Z,48.57
2024-02-03T21:18:16.314Z,51.63
2024-02-03T21:20:43.487Z,53.10
2024-02-03T21:23:13.281Z,53.57
2024-02-03T21:25:40.181Z,51.13
2024-02-03T21:28:07.051Z,48.60
2024-02-03T21:30:34.415Z,49.00
2024-02-03T21:33:01.156Z,49.60
2024-02-03T21:35:27.821Z,42.97
2024-02-03T21:37:55.209Z,25.80
2024-02-03T21:40:21.865Z,12.30
2024-02-03T21:42:48.545Z,6.37
2024-02-03T21:45:15.429Z,30.37
2024-02-03T21:47:42.179Z,27.40
2024-02-03T21:50:10.173Z,30.40
2024-02-03T21:52:39.723Z,29.80
2024-02-03T21:55:06.993Z,21.70
2024-02-03T21:57:33.744Z,23.80
2024-02-03T22:00:00.744Z,16.70
2024-02-03T22:02:27.659Z,16.57
2024-02-03T22:04:54.548Z,28.13
2024-02-03T22:07:23.984Z,33.87
2024-02-03T22:09:50.831Z,31.90
2024-02-03T22:12:17.570Z,30.83
2024-02-03T22:14:44.250Z,28.33
2024-02-03T22:17:11.793Z,26.63
2024-02-03T22:19:38.606Z,45.13
2024-02-03T22:22:06.469Z,33.70
2024-02-03T22:24:35.244Z,38.47
2024-02-03T22:27:02.006Z,38.77
2024-02-03T22:29:29.867Z,37.47
2024-02-03T22:31:58.592Z,31.87
2024-02-03T22:34:25.816Z,32.53
2024-02-03T22:36:52.764Z,25.83
2024-02-03T22:39:19.896Z,22.83
2024-02-03T22:41:46.686Z,29.37
2024-02-03T22:44:13.469Z,27.43
2024-02-03T22:46:40.166Z,25.93
2024-02-03T22:49:06.929Z,25.53
2024-02-03T22:51:34.055Z,30.90
2024-02-03T22:54:00.754Z,29.30
2024-02-03T22:56:27.411Z,27.80
2024-02-03T22:58:54.186Z,26.90
2024-02-03T23:01:22.279Z,26.97
2024-02-03T23:03:50.030Z,20.37
2024-02-03T23:06:17.615Z,22.77
2024-02-03T23:08:45.837Z,24.30
2024-02-03T23:11:13.015Z,18.53
2024-02-03T23:13:40.936Z,17.50
2024-02-03T23:16:08.060Z,26.13
2024-02-03T23:18:35.279Z,33.90
2024-02-03T23:21:05.155Z,28.20
2024-02-03T23:23:35.873Z,18.83
2024-02-03T23:26:03.014Z,16.87
2024-02-03T23:28:32.387Z,20.20
2024-02-03T23:31:02.531Z,22.40
2024-02-03T23:33:29.365Z,20.83
2024-02-03T23:35:56.080Z,21.10
2024-02-03T23:38:23.646Z,21.53
2024-02-03T23:40:50.642Z,16.77
2024-02-03T23:43:17.811Z,23.77
2024-02-03T23:45:44.569Z,18.80
2024-02-03T23:48:11.340Z,20.13
2024-02-03T23:50:38.022Z,14.33
2024-02-03T23:53:04.962Z,15.80
2024-02-03T23:55:31.625Z,15.60
2024-02-03T23:57:58.611Z,16.37
